Time;durP1;ratioP1;P1;durP2;ratioP2;P2;SDS_P1;SDS_P2;PMS_P1;PMS_P2;Temp;Humidity;BMP_temperature;BMP_pressure;BME280_temperature;BME280_humidity;BME280_pressure;Samples;Min_cycle;Max_cycle;Signal;HPM_P1;HPM_P2
2023/10/23 00:01:48;;;;;;;9.07;3.50;;;14.50;92.20;;;;;;5023361;28;20211;-63
2023/10/23 00:04:15;;;;;;;5.70;3.10;;;14.50;92.20;;;;;;5028238;28;20649;-63
2023/10/23 00:06:42;;;;;;;9.53;3.03;;;14.50;92.30;;;;;;5025422;28;20223;-63
2023/10/23 00:09:09;;;;;;;6.33;2.73;;;14.40;92.30;;;;;;5023826;28;20198;-63
2023/10/23 00:11:37;;;;;;;8.47;2.37;;;14.40;92.30;;;;;;5026999;28;20660;-63
2023/10/23 00:14:06;;;;;;;6.33;2.70;;;14.40;92.60;;;;;;5024778;28;20250;-63
2023/10/23 00:16:35;;;;;;;4.80;2.80;;;14.40;92.30;;;;;;5026898;28;20273;-63
2023/10/23 00:19:04;;;;;;;5.00;2.30;;;14.30;92.20;;;;;;5022302;28;20666;-63
2023/10/23 00:21:35;;;;;;;5.70;1.70;;;14.30;92.20;;;;;;5019669;28;20206;-63
2023/10/23 00:24:02;;;;;;;4.97;1.93;;;14.30;92.10;;;;;;5023743;28;20211;-63
2023/10/23 00:26:29;;;;;;;3.30;1.97;;;14.30;92.00;;;;;;5025566;28;20195;-63
2023/10/23 00:28:57;;;;;;;3.60;2.03;;;14.30;91.90;;;;;;5024273;28;20642;-63
2023/10/23 00:31:30;;;;;;;4.67;2.30;;;14.30;91.90;;;;;;5017195;28;20207;-63
2023/10/23 00:33:57;;;;;;;2.87;2.00;;;14.30;91.80;;;;;;5024865;28;20207;-63
2023/10/23 00:36:26;;;;;;;4.20;1.60;;;14.20;91.70;;;;;;5009136;28;20655;-63
2023/10/23 00:38:54;;;;;;;3.33;2.00;;;14.20;91.80;;;;;;5027395;28;20219;-63
2023/10/23 00:41:22;;;;;;;3.60;1.80;;;14.20;91.90;;;;;;5022364;28;20204;-63
2023/10/23 00:43:49;;;;;;;2.67;1.70;;;14.10;92.00;;;;;;5029856;28;20202;-63
2023/10/23 00:46:19;;;;;;;5.97;1.60;;;14.10;92.00;;;;;;5024002;28;20218;-63
2023/10/23 00:48:50;;;;;;;2.80;1.50;;;14.10;92.10;;;;;;5013453;28;20242;-63
2023/10/23 00:51:19;;;;;;;2.70;1.70;;;14.00;92.10;;;;;;5014008;28;20199;-63
2023/10/23 00:53:47;;;;;;;4.70;2.33;;;14.00;92.10;;;;;;4999528;28;20253;-63
2023/10/23 00:56:14;;;;;;;3.97;1.90;;;14.00;92.20;;;;;;5015318;28;20348;-63
2023/10/23 00:58:42;;;;;;;9.10;2.50;;;13.90;92.20;;;;;;5020694;28;20652;-63
2023/10/23 01:01:12;;;;;;;1.90;1.23;;;13.90;92.10;;;;;;5015610;28;20210;-63
2023/10/23 01:03:43;;;;;;;5.27;2.70;;;13.90;92.10;;;;;;5024813;28;20625;-63
2023/10/23 01:06:12;;;;;;;2.77;1.47;;;13.90;92.20;;;;;;5023545;28;20239;-63
2023/10/23 01:08:40;;;;;;;6.90;1.40;;;13.80;92.20;;;;;;5027095;28;20223;-63
2023/10/23 01:11:10;;;;;;;5.63;1.70;;;13.80;92.10;;;;;;5004990;28;20660;-63
2023/10/23 01:13:38;;;;;;;3.73;1.60;;;13.90;92.10;;;;;;5007086;28;20225;-63
2023/10/23 01:16:07;;;;;;;2.30;1.50;;;13.80;92.00;;;;;;5027131;28;20221;-63
2023/10/23 01:18:36;;;;;;;4.83;1.57;;;13.90;92.10;;;;;;5021935;28;20276;-63
2023/10/23 01:21:06;;;;;;;8.40;2.20;;;13.90;92.00;;;;;;5008111;28;20202;-63
2023/10/23 01:23:36;;;;;;;4.70;1.67;;;13.90;92.00;;;;;;5027568;28;20729;-63
2023/10/23 01:26:03;;;;;;;3.73;1.60;;;13.90;91.80;;;;;;5010161;28;20202;-63
2023/10/23 01:28:31;;;;;;;5.33;1.83;;;13.90;91.70;;;;;;5021861;28;20196;-63
2023/10/23 01:30:58;;;;;;;7.23;1.60;;;13.90;91.70;;;;;;5016350;28;20206;-63
2023/10/23 01:33:31;;;;;;;2.83;1.43;;;13.90;91.70;;;;;;5023710;28;20203;-64
2023/10/23 01:35:58;;;;;;;3.03;1.70;;;13.90;91.70;;;;;;5027465;28;20244;-64
2023/10/23 01:38:25;;;;;;;2.97;1.37;;;13.90;91.70;;;;;;5029537;28;20214;-63
2023/10/23 01:40:52;;;;;;;2.47;1.87;;;13.80;91.70;;;;;;5023745;28;20203;-63
2023/10/23 01:43:19;;;;;;;3.33;1.90;;;13.80;91.70;;;;;;5010518;28;20277;-63
2023/10/23 01:45:46;;;;;;;2.13;1.60;;;13.80;91.60;;;;;;5016487;28;20230;-63
2023/10/23 01:48:13;;;;;;;1.80;1.43;;;13.80;91.60;;;;;;5026171;28;20221;-63
2023/10/23 01:50:40;;;;;;;3.67;1.83;;;13.80;91.60;;;;;;5027673;28;20225;-63
2023/10/23 01:53:07;;;;;;;3.07;1.63;;;13.80;91.70;;;;;;5011725;28;20300;-63
2023/10/23 01:55:35;;;;;;;4.60;2.00;;;13.80;91.70;;;;;;5008414;28;20247;-63
2023/10/23 01:58:03;;;;;;;3.47;1.90;;;13.80;91.80;;;;;;5006385;28;20237;-63
2023/10/23 02:00:31;;;;;;;3.83;1.90;;;13.70;91.80;;;;;;5014293;28;20202;-63
2023/10/23 02:03:01;;;;;;;5.10;1.80;;;13.70;91.80;;;;;;5025897;28;20234;-63
2023/10/23 02:05:28;;;;;;;2.60;1.80;;;13.60;91.70;;;;;;5015254;28;20202;-63
2023/10/23 02:07:58;;;;;;;4.33;2.23;;;13.60;91.50;;;;;;5026064;28;20221;-63
2023/10/23 02:10:25;;;;;;;6.47;1.70;;;13.50;91.40;;;;;;5003173;28;20207;-63
2023/10/23 02:12:52;;;;;;;1.87;1.67;;;13.40;91.60;;;;;;5010253;28;20637;-63
2023/10/23 02:15:19;;;;;;;3.73;2.03;;;13.30;91.30;;;;;;5017995;28;20242;-63
2023/10/23 02:17:47;;;;;;;4.67;1.70;;;13.30;91.40;;;;;;5020943;28;20229;-63
2023/10/23 02:20:14;;;;;;;5.90;1.97;;;13.20;91.60;;;;;;5023711;28;20710;-65
2023/10/23 02:22:41;;;;;;;5.63;2.00;;;13.20;91.60;;;;;;5011027;28;20212;-64
2023/10/23 02:25:08;;;;;;;7.17;1.83;;;13.10;91.60;;;;;;5009025;28;20210;-64
2023/10/23 02:27:42;;;;;;;4.30;1.73;;;13.10;91.70;;;;;;5029104;28;20201;-64
2023/10/23 02:30:11;;;;;;;4.60;2.23;;;13.00;91.80;;;;;;5008208;28;20273;-64
2023/10/23 02:32:40;;;;;;;3.53;1.67;;;13.00;92.00;;;;;;5024760;28;20557;-64
2023/10/23 02:35:08;;;;;;;3.97;2.13;;;13.00;92.10;;;;;;5028583;28;20206;-64
2023/10/23 02:37:35;;;;;;;4.07;2.00;;;12.90;92.10;;;;;;5023471;28;20215;-64
2023/10/23 02:40:04;;;;;;;3.67;1.83;;;13.00;92.20;;;;;;5021226;28;20230;-64
2023/10/23 02:42:31;;;;;;;6.90;1.77;;;12.90;92.30;;;;;;5009546;28;20205;-64
2023/10/23 02:45:01;;;;;;;1.60;1.50;;;12.90;92.40;;;;;;5003780;28;20554;-64
2023/10/23 02:47:28;;;;;;;6.30;2.27;;;13.00;92.50;;;;;;5024842;28;20225;-64
2023/10/23 02:49:55;;;;;;;5.60;2.80;;;13.00;92.50;;;;;;5021911;28;20291;-64
2023/10/23 02:52:25;;;;;;;6.23;2.10;;;13.00;92.60;;;;;;5005708;28;20211;-64
2023/10/23 02:54:56;;;;;;;3.63;1.97;;;13.00;92.60;;;;;;5019377;28;20622;-64
2023/10/23 02:57:23;;;;;;;3.40;1.83;;;13.00;92.70;;;;;;5022271;28;20289;-64
2023/10/23 02:59:50;;;;;;;3.73;1.70;;;12.90;92.60;;;;;;5021622;28;20222;-64
2023/10/23 03:02:18;;;;;;;2.93;1.80;;;12.90;92.60;;;;;;5021047;28;20194;-64
2023/10/23 03:04:45;;;;;;;4.37;1.70;;;12.90;92.60;;;;;;5021323;28;20573;-64
2023/10/23 03:07:17;;;;;;;7.77;2.07;;;12.90;92.70;;;;;;5005214;28;20223;-64
2023/10/23 03:09:46;;;;;;;4.53;1.93;;;12.90;92.80;;;;;;5023664;28;20210;-64
2023/10/23 03:12:14;;;;;;;7.90;1.97;;;12.80;92.80;;;;;;5022215;28;20655;-64
2023/10/23 03:14:43;;;;;;;4.30;1.73;;;12.80;92.90;;;;;;5006944;28;20241;-63
2023/10/23 03:17:11;;;;;;;3.77;1.90;;;12.80;92.90;;;;;;5009368;28;20683;-64
2023/10/23 03:19:38;;;;;;;7.10;2.40;;;12.80;92.90;;;;;;5019054;28;20561;-64
2023/10/23 03:22:05;;;;;;;6.50;1.80;;;12.80;92.90;;;;;;5010682;28;20507;-64
2023/10/23 03:24:32;;;;;;;4.80;2.10;;;12.80;92.90;;;;;;5022135;28;20203;-64
2023/10/23 03:26:59;;;;;;;4.70;1.57;;;12.80;93.00;;;;;;5020718;28;20195;-64
2023/10/23 03:29:26;;;;;;;1.87;1.37;;;12.80;93.00;;;;;;5012051;28;20207;-64
2023/10/23 03:31:54;;;;;;;3.67;1.70;;;12.70;93.00;;;;;;5013260;28;20211;-64
2023/10/23 03:34:28;;;;;;;1.97;1.80;;;12.80;93.00;;;;;;5027381;28;20197;-64
2023/10/23 03:36:55;;;;;;;2.67;2.30;;;12.80;93.00;;;;;;5018174;28;20253;-64
2023/10/23 03:39:23;;;;;;;5.40;1.83;;;12.80;93.00;;;;;;5024407;28;20225;-64
2023/10/23 03:41:51;;;;;;;6.47;1.70;;;12.90;93.00;;;;;;5009301;28;20278;-64
2023/10/23 03:44:17;;;;;;;2.93;1.83;;;12.90;92.90;;;;;;5022071;28;20198;-64
2023/10/23 03:46:47;;;;;;;2.20;1.73;;;12.90;92.70;;;;;;5022129;28;20221;-64
2023/10/23 03:49:16;;;;;;;2.77;1.10;;;12.80;92.70;;;;;;5022377;28;20218;-64
2023/10/23 03:51:43;;;;;;;8.40;1.67;;;12.80;92.70;;;;;;5006851;28;20214;-64
2023/10/23 03:54:11;;;;;;;5.17;1.70;;;12.80;92.70;;;;;;5009571;28;20234;-64
2023/10/23 03:56:38;;;;;;;4.67;1.67;;;12.80;92.80;;;;;;5018129;28;20227;-64
2023/10/23 03:59:07;;;;;;;2.43;1.63;;;12.70;92.80;;;;;;5013605;28;20253;-64
2023/10/23 04:01:34;;;;;;;2.90;1.60;;;12.80;92.80;;;;;;5010425;28;20200;-64
2023/10/23 04:04:01;;;;;;;6.47;1.60;;;12.80;92.80;;;;;;5017756;28;20214;-64
2023/10/23 04:06:28;;;;;;;2.90;1.63;;;12.80;92.70;;;;;;5023283;28;20202;-64
2023/10/23 04:08:55;;;;;;;2.23;1.70;;;12.80;92.60;;;;;;5021993;28;20211;-64
2023/10/23 04:11:25;;;;;;;3.10;1.90;;;12.80;92.60;;;;;;5018507;28;20201;-63
2023/10/23 04:13:51;;;;;;;4.03;1.70;;;12.80;92.50;;;;;;5024297;28;20256;-63
2023/10/23 04:16:18;;;;;;;3.30;1.80;;;12.70;92.50;;;;;;5021030;28;20205;-64
2023/10/23 04:18:46;;;;;;;7.73;2.43;;;12.70;92.50;;;;;;5023486;28;20226;-64
2023/10/23 04:21:13;;;;;;;4.60;1.53;;;12.70;92.50;;;;;;5027709;28;20202;-64
2023/10/23 04:23:43;;;;;;;1.47;1.33;;;12.70;92.50;;;;;;5018123;28;20234;-63
2023/10/23 04:26:12;;;;;;;2.60;1.20;;;12.70;92.50;;;;;;5019959;28;20191;-63
2023/10/23 04:28:41;;;;;;;4.40;1.33;;;12.70;92.40;;;;;;5027161;28;20600;-63
2023/10/23 04:31:08;;;;;;;5.23;1.40;;;12.80;92.40;;;;;;5026672;28;20224;-63
2023/10/23 04:33:35;;;;;;;1.97;1.23;;;12.80;92.40;;;;;;5016049;28;20228;-63
2023/10/23 04:36:02;;;;;;;2.10;1.23;;;12.80;92.30;;;;;;5025871;28;20214;-63
2023/10/23 04:38:31;;;;;;;3.50;1.20;;;12.80;92.30;;;;;;5022955;28;20218;-63
2023/10/23 04:40:58;;;;;;;4.40;1.30;;;12.80;92.20;;;;;;5023687;28;20649;-63
2023/10/23 04:43:25;;;;;;;4.00;1.00;;;12.80;92.20;;;;;;5024357;28;20672;-63
2023/10/23 04:45:52;;;;;;;8.60;1.60;;;12.80;92.10;;;;;;5023470;28;20210;-63
2023/10/23 04:48:20;;;;;;;2.00;1.30;;;12.80;92.20;;;;;;5029539;28;20207;-63
2023/10/23 04:50:47;;;;;;;2.73;1.43;;;12.70;92.20;;;;;;5029481;28;20235;-63
2023/10/23 04:53:14;;;;;;;5.13;1.57;;;12.80;92.20;;;;;;5025510;28;20201;-63
2023/10/23 04:55:42;;;;;;;3.57;1.40;;;12.80;92.10;;;;;;5029196;28;20270;-63
2023/10/23 04:58:09;;;;;;;3.90;1.57;;;12.80;92.20;;;;;;5026965;28;20215;-64
2023/10/23 05:00:38;;;;;;;5.23;1.70;;;12.80;92.20;;;;;;5026030;28;20208;-63
2023/10/23 05:03:05;;;;;;;3.63;1.30;;;12.80;92.20;;;;;;5027288;28;20198;-63
2023/10/23 05:05:33;;;;;;;2.07;1.50;;;12.70;92.20;;;;;;5020985;28;20198;-63
2023/10/23 05:08:01;;;;;;;9.93;1.90;;;12.70;92.30;;;;;;5019462;28;20229;-63
2023/10/23 05:10:28;;;;;;;3.17;1.27;;;12.70;92.30;;;;;;5026748;28;20531;-63
2023/10/23 05:12:55;;;;;;;4.13;1.57;;;12.70;92.30;;;;;;5021860;28;20206;-63
2023/10/23 05:15:28;;;;;;;3.10;1.87;;;12.70;92.20;;;;;;5022171;28;20317;-63
2023/10/23 05:17:55;;;;;;;2.73;1.37;;;12.70;92.20;;;;;;5022952;28;20244;-63
2023/10/23 05:20:22;;;;;;;4.93;1.83;;;12.70;92.10;;;;;;5019754;28;20226;-64
2023/10/23 05:22:52;;;;;;;1.90;1.30;;;12.70;92.00;;;;;;5026083;28;20226;-64
2023/10/23 05:25:19;;;;;;;3.07;1.17;;;12.70;92.00;;;;;;5027356;28;20213;-64
2023/10/23 05:27:46;;;;;;;5.43;1.50;;;12.70;92.10;;;;;;5025671;28;20316;-63
2023/10/23 05:30:13;;;;;;;5.10;1.37;;;12.70;92.10;;;;;;5026097;28;20221;-64
2023/10/23 05:32:43;;;;;;;1.60;1.27;;;12.80;92.10;;;;;;5027008;28;20216;-64
2023/10/23 05:35:11;;;;;;;3.53;1.50;;;12.80;92.10;;;;;;5028437;28;20212;-64
2023/10/23 05:37:41;;;;;;;3.37;1.30;;;12.80;92.10;;;;;;5013247;28;20225;-64
2023/10/23 05:40:13;;;;;;;2.03;1.30;;;12.80;92.10;;;;;;5025813;28;20308;-63
2023/10/23 05:42:40;;;;;;;3.60;1.10;;;12.80;92.40;;;;;;5028042;28;20204;-63
2023/10/23 05:45:08;;;;;;;2.73;1.33;;;12.70;92.10;;;;;;5021509;28;20203;-63
2023/10/23 05:47:35;;;;;;;3.30;1.53;;;12.80;92.10;;;;;;5024124;28;20199;-63
2023/10/23 05:50:04;;;;;;;2.73;1.30;;;12.70;92.20;;;;;;5025042;28;20219;-63
2023/10/23 05:52:31;;;;;;;5.23;1.50;;;12.70;92.20;;;;;;5022134;28;20208;-63
2023/10/23 05:54:58;;;;;;;3.13;1.20;;;12.70;92.20;;;;;;5024805;28;20206;-63
2023/10/23 05:57:28;;;;;;;5.93;1.53;;;12.70;92.20;;;;;;5019686;28;20655;-63
2023/10/23 05:59:55;;;;;;;3.40;1.23;;;12.80;92.10;;;;;;5023386;28;20702;-64
2023/10/23 06:02:22;;;;;;;4.63;1.83;;;12.80;92.00;;;;;;5023647;28;20194;-63
2023/10/23 06:04:49;;;;;;;3.77;2.10;;;12.80;91.90;;;;;;5019617;28;20252;-63
2023/10/23 06:07:16;;;;;;;1.73;1.50;;;12.80;91.90;;;;;;5024304;28;20215;-63
2023/10/23 06:09:48;;;;;;;4.97;1.37;;;12.80;91.90;;;;;;5025133;28;20204;-62
2023/10/23 06:12:15;;;;;;;3.10;1.23;;;12.80;91.90;;;;;;5018806;28;20206;-62
2023/10/23 06:14:42;;;;;;;5.37;1.93;;;12.80;91.80;;;;;;5013015;28;20257;-62
2023/10/23 06:17:09;;;;;;;3.73;1.80;;;12.80;91.90;;;;;;5020278;28;20214;-62
2023/10/23 06:19:36;;;;;;;2.87;1.37;;;12.80;91.90;;;;;;5024526;28;20549;-62
2023/10/23 06:22:06;;;;;;;7.20;1.17;;;12.90;91.90;;;;;;5029011;28;20226;-62
2023/10/23 06:24:33;;;;;;;1.80;1.30;;;12.90;92.00;;;;;;5019629;28;20204;-62
2023/10/23 06:27:03;;;;;;;6.97;1.50;;;12.90;92.00;;;;;;5023921;28;20285;-62
2023/10/23 06:29:33;;;;;;;3.10;1.23;;;13.00;92.00;;;;;;5022413;28;20252;-62
2023/10/23 06:32:00;;;;;;;5.90;1.70;;;13.00;92.10;;;;;;5027093;28;20688;-62
2023/10/23 06:34:29;;;;;;;4.80;1.40;;;13.10;92.10;;;;;;5024116;28;20652;-62
2023/10/23 06:37:03;;;;;;;4.80;1.40;;;13.20;92.10;;;;;;5023958;28;20199;-62
2023/10/23 06:39:31;;;;;;;3.77;1.80;;;13.20;92.10;;;;;;5024869;28;20211;-62
2023/10/23 06:41:58;;;;;;;4.80;2.00;;;13.30;92.10;;;;;;5024939;28;20193;-62
2023/10/23 06:44:29;;;;;;;2.50;1.60;;;13.50;92.20;;;;;;5002431;28;20195;-62
2023/10/23 06:46:56;;;;;;;4.53;1.67;;;13.60;92.20;;;;;;5023528;28;20212;-62
2023/10/23 06:49:26;;;;;;;1.77;1.20;;;13.70;92.20;;;;;;5021291;28;20662;-62
2023/10/23 06:51:53;;;;;;;4.90;1.40;;;13.80;92.10;;;;;;5025314;28;20622;-62
2023/10/23 06:54:20;;;;;;;5.20;1.27;;;14.00;92.00;;;;;;5019935;28;20268;-62
2023/10/23 06:56:50;;;;;;;4.70;1.47;;;14.10;91.90;;;;;;5022361;28;20544;-62
2023/10/23 06:59:24;;;;;;;4.73;1.60;;;14.10;91.80;;;;;;5021078;28;20262;-62
2023/10/23 07:01:51;;;;;;;6.43;1.37;;;14.20;91.70;;;;;;5021304;28;20635;-62
2023/10/23 07:04:18;;;;;;;3.03;1.60;;;14.30;91.70;;;;;;5024697;28;20566;-62
2023/10/23 07:06:45;;;;;;;1.87;1.50;;;14.40;91.60;;;;;;5020287;28;20568;-62
2023/10/23 07:09:19;;;;;;;4.40;1.90;;;14.50;91.60;;;;;;5021252;28;20207;-62
2023/10/23 07:11:50;;;;;;;4.70;1.50;;;14.50;91.90;;;;;;5026432;28;20702;-62
2023/10/23 07:14:18;;;;;;;6.03;1.73;;;14.60;91.60;;;;;;5024250;28;20237;-63
2023/10/23 07:16:48;;;;;;;4.07;1.60;;;14.60;91.50;;;;;;5022406;28;20210;-62
2023/10/23 07:19:15;;;;;;;4.10;1.83;;;14.70;91.40;;;;;;5027655;28;20203;-63
2023/10/23 07:21:42;;;;;;;2.80;1.10;;;14.80;91.40;;;;;;5023042;28;20203;-63
2023/10/23 07:24:09;;;;;;;5.17;1.77;;;15.00;91.50;;;;;;5024747;28;20286;-62
2023/10/23 07:26:36;;;;;;;5.67;2.00;;;15.10;91.50;;;;;;5024012;28;20268;-62
2023/10/23 07:29:03;;;;;;;3.50;2.80;;;15.30;91.30;;;;;;5023280;28;20192;-62
2023/10/23 07:31:30;;;;;;;4.97;2.23;;;15.50;91.00;;;;;;5024067;28;20218;-62
2023/10/23 07:33:57;;;;;;;5.17;1.90;;;15.60;90.70;;;;;;5027291;28;20227;-62
2023/10/23 07:36:24;;;;;;;2.97;1.80;;;15.70;90.40;;;;;;5017502;28;20647;-62
2023/10/23 07:38:51;;;;;;;4.13;1.67;;;15.80;90.30;;;;;;5024205;28;20214;-62
2023/10/23 07:41:18;;;;;;;4.00;2.47;;;15.90;90.20;;;;;;5021747;28;20215;-63
2023/10/23 07:43:45;;;;;;;7.43;1.53;;;15.90;90.10;;;;;;5020887;28;20280;-64
2023/10/23 07:46:13;;;;;;;2.33;1.60;;;15.90;90.00;;;;;;5015719;28;20200;-63
2023/10/23 07:48:45;;;;;;;6.13;2.10;;;15.90;89.80;;;;;;5021617;28;20231;-63
2023/10/23 07:51:12;;;;;;;5.43;2.07;;;16.00;89.70;;;;;;5019387;28;20208;-63
2023/10/23 07:53:40;;;;;;;4.43;2.50;;;16.00;89.60;;;;;;5017102;28;20694;-63
2023/10/23 07:56:07;;;;;;;4.43;2.70;;;16.10;89.70;;;;;;5024402;28;20199;-62
2023/10/23 07:58:34;;;;;;;6.63;2.77;;;16.10;89.60;;;;;;5021324;28;20208;-62
2023/10/23 08:01:06;;;;;;;10.33;2.93;;;16.10;89.40;;;;;;5021069;28;20337;-63
2023/10/23 08:03:34;;;;;;;7.93;2.83;;;16.20;89.50;;;;;;5025034;28;20262;-63
2023/10/23 08:06:07;;;;;;;6.37;3.27;;;16.20;89.50;;;;;;5016808;28;20199;-63
2023/10/23 08:08:35;;;;;;;10.13;3.57;;;16.20;89.40;;;;;;5024748;28;20207;-62
2023/10/23 08:11:04;;;;;;;6.13;3.27;;;16.30;89.40;;;;;;5017399;28;20208;-63
2023/10/23 08:13:31;;;;;;;5.33;3.03;;;16.30;89.00;;;;;;5017197;28;20554;-63
2023/10/23 08:15:58;;;;;;;8.37;2.33;;;16.40;88.50;;;;;;5022287;28;20305;-62
2023/10/23 08:18:27;;;;;;;2.97;2.13;;;16.50;88.10;;;;;;5016881;28;20283;-62
2023/10/23 08:21:26;;;;;;;6.07;2.50;;;16.70;87.90;;;;;;5022644;28;20292;-62
2023/10/23 08:23:54;;;;;;;6.80;2.47;;;16.80;87.70;;;;;;5028101;28;20244;-62
2023/10/23 08:26:21;;;;;;;5.87;2.17;;;16.90;87.50;;;;;;5030335;28;20288;-62
2023/10/23 08:28:49;;;;;;;5.20;2.63;;;17.00;87.30;;;;;;5026304;28;20234;-62
2023/10/23 08:31:28;;;;;;;6.50;2.50;;;17.20;87.20;;;;;;5029897;28;20223;-62
2023/10/23 08:34:07;;;;;;;5.10;1.80;;;17.40;87.10;;;;;;5026376;28;20517;-62
2023/10/23 08:36:35;;;;;;;5.00;2.10;;;17.50;86.70;;;;;;5021844;28;20259;-62
2023/10/23 08:39:02;;;;;;;4.90;2.03;;;17.40;86.40;;;;;;5026389;28;20217;-63
2023/10/23 08:41:31;;;;;;;6.63;2.00;;;17.50;86.30;;;;;;5023451;28;20242;-63
2023/10/23 08:43:58;;;;;;;6.20;2.00;;;17.50;86.20;;;;;;5024091;28;20285;-63
2023/10/23 08:46:29;;;;;;;2.83;2.17;;;17.40;86.00;;;;;;5023254;28;20238;-64
2023/10/23 08:48:56;;;;;;;3.90;2.30;;;17.50;85.80;;;;;;5023988;28;20287;-63
2023/10/23 08:51:24;;;;;;;5.33;2.13;;;17.70;85.30;;;;;;5007336;28;20553;-63
2023/10/23 08:53:58;;;;;;;6.50;3.13;;;17.80;85.00;;;;;;5022352;28;20640;-63
2023/10/23 08:56:39;;;;;;;6.20;4.27;;;17.90;84.80;;;;;;5020931;28;20213;-63
2023/10/23 08:59:08;;;;;;;9.97;5.10;;;18.10;84.20;;;;;;5021993;28;20238;-63
2023/10/23 09:01:36;;;;;;;11.43;4.17;;;18.20;83.80;;;;;;5025637;28;20274;-63
2023/10/23 09:04:05;;;;;;;10.27;4.93;;;18.30;83.40;;;;;;5021312;28;20195;-63
2023/10/23 09:06:35;;;;;;;11.57;6.20;;;18.40;83.30;;;;;;5026908;28;20200;-63
2023/10/23 09:09:05;;;;;;;8.33;6.20;;;18.50;83.40;;;;;;5021919;28;20504;-63
2023/10/23 09:11:38;;;;;;;9.53;6.33;;;18.60;82.70;;;;;;5023447;28;20202;-64
2023/10/23 09:14:05;;;;;;;11.53;6.20;;;18.70;82.10;;;;;;5028549;28;20252;-64
2023/10/23 09:16:33;;;;;;;11.53;7.43;;;18.90;81.70;;;;;;5020755;28;20312;-64
2023/10/23 09:19:00;;;;;;;15.10;9.30;;;18.90;81.00;;;;;;5027730;28;20259;-64
2023/10/23 09:21:27;;;;;;;23.80;13.57;;;19.00;80.80;;;;;;5031800;28;20211;-64
2023/10/23 09:23:58;;;;;;;13.77;7.07;;;19.00;80.90;;;;;;5027933;28;20286;-64
2023/10/23 09:26:25;;;;;;;9.07;4.33;;;19.00;80.90;;;;;;5026832;28;20209;-63
2023/10/23 09:28:53;;;;;;;4.93;2.90;;;18.90;80.50;;;;;;5020821;28;20195;-63
2023/10/23 09:31:21;;;;;;;4.00;2.17;;;18.90;80.70;;;;;;5027290;28;20290;-63
2023/10/23 09:33:50;;;;;;;4.63;2.67;;;19.00;81.00;;;;;;5025806;28;20268;-63
2023/10/23 09:36:18;;;;;;;5.87;2.20;;;19.10;81.20;;;;;;5025203;28;20212;-63
2023/10/23 09:39:00;;;;;;;7.23;2.63;;;19.20;81.30;;;;;;5024966;28;20289;-63
2023/10/23 09:41:27;;;;;;;5.23;2.20;;;19.30;80.40;;;;;;5020861;28;20232;-64
2023/10/23 09:43:57;;;;;;;5.37;2.43;;;19.30;80.10;;;;;;5023609;28;20218;-64
2023/10/23 09:46:25;;;;;;;3.80;1.90;;;19.40;80.10;;;;;;5020916;28;20203;-64
2023/10/23 09:48:55;;;;;;;4.23;2.33;;;19.60;79.50;;;;;;5026645;28;20213;-64
2023/10/23 09:51:41;;;;;;;7.37;2.30;;;19.70;79.70;;;;;;5023296;28;20194;-63
2023/10/23 09:54:19;;;;;;;6.73;2.97;;;19.80;79.30;;;;;;5021211;28;20558;-63
2023/10/23 09:56:54;;;;;;;4.37;2.10;;;20.00;78.50;;;;;;5027800;28;20234;-63
2023/10/23 09:59:55;;;;;;;4.47;2.40;;;20.10;77.90;;;;;;5023547;28;20562;-63
2023/10/23 10:02:27;;;;;;;5.17;2.90;;;20.20;77.40;;;;;;5002405;28;20224;-63
2023/10/23 10:05:09;;;;;;;4.63;2.70;;;20.30;77.20;;;;;;5024719;28;20268;-63
2023/10/23 10:07:38;;;;;;;9.27;2.87;;;20.40;76.90;;;;;;5007889;28;20667;-63
2023/10/23 10:10:07;;;;;;;4.27;2.67;;;20.50;76.20;;;;;;5028028;28;20613;-63
2023/10/23 10:12:37;;;;;;;4.73;2.17;;;20.60;75.50;;;;;;5011236;28;20565;-63
2023/10/23 10:15:12;;;;;;;6.57;2.90;;;20.80;75.50;;;;;;5023986;28;20243;-64
2023/10/23 10:17:39;;;;;;;5.33;2.13;;;20.90;75.50;;;;;;5029622;28;20202;-64
2023/10/23 10:20:11;;;;;;;3.90;2.07;;;21.10;75.30;;;;;;5029002;28;20233;-64
2023/10/23 10:22:43;;;;;;;5.50;2.43;;;21.30;74.90;;;;;;5024340;28;20191;-64
2023/10/23 10:25:11;;;;;;;5.73;2.37;;;21.30;74.60;;;;;;5029552;28;20210;-63
2023/10/23 10:27:38;;;;;;;5.43;2.50;;;21.40;74.20;;;;;;5026601;28;20219;-63
2023/10/23 10:30:26;;;;;;;7.47;2.10;;;21.50;74.50;;;;;;5027280;28;20218;-63
2023/10/23 10:32:59;;;;;;;5.63;2.57;;;21.50;73.60;;;;;;5028140;28;20199;-63
2023/10/23 10:36:00;;;;;;;8.97;1.80;;;21.60;72.80;;;;;;5022324;28;20211;-63
2023/10/23 10:38:32;;;;;;;4.67;2.33;;;21.80;72.60;;;;;;5023888;28;20211;-63
2023/10/23 10:41:01;;;;;;;7.20;2.77;;;21.90;72.40;;;;;;5007946;28;20228;-63
2023/10/23 10:43:37;;;;;;;5.70;2.90;;;22.00;72.40;;;;;;5024123;28;20218;-63
2023/10/23 10:46:14;;;;;;;4.90;2.03;;;22.10;72.30;;;;;;5008959;28;20199;-63
2023/10/23 10:48:44;;;;;;;6.27;2.60;;;22.20;72.20;;;;;;5020954;28;20191;-63
2023/10/23 10:51:24;;;;;;;6.87;3.03;;;22.30;71.50;;;;;;5012836;28;20639;-63
2023/10/23 10:54:03;;;;;;;10.43;2.93;;;22.40;71.00;;;;;;5008591;28;20225;-63
2023/10/23 10:56:31;;;;;;;6.40;2.10;;;22.40;70.80;;;;;;5010639;28;20204;-63
2023/10/23 10:59:04;;;;;;;6.00;2.47;;;22.50;69.40;;;;;;5019978;28;20537;-63
2023/10/23 11:01:32;;;;;;;4.90;2.20;;;22.50;68.80;;;;;;5023898;28;20212;-63
2023/10/23 11:04:01;;;;;;;4.97;2.80;;;22.50;68.10;;;;;;5023309;28;20652;-63
2023/10/23 11:06:29;;;;;;;3.80;2.30;;;22.60;68.90;;;;;;5012166;28;20286;-63
2023/10/23 11:08:58;;;;;;;6.03;2.00;;;22.60;69.40;;;;;;5021469;28;20196;-60
2023/10/23 11:11:26;;;;;;;3.83;2.00;;;22.70;69.20;;;;;;5019347;28;20667;-60
2023/10/23 11:13:54;;;;;;;4.17;2.67;;;22.70;68.40;;;;;;5022924;28;20196;-61
2023/10/23 11:16:22;;;;;;;3.17;2.00;;;22.80;67.40;;;;;;5023939;28;20203;-62
2023/10/23 11:18:51;;;;;;;4.27;2.10;;;22.80;66.30;;;;;;5024509;28;20210;-61
2023/10/23 11:21:23;;;;;;;3.67;3.10;;;22.80;65.50;;;;;;5024608;28;20215;-61
2023/10/23 11:23:53;;;;;;;6.97;2.70;;;22.80;65.30;;;;;;5025174;28;20199;-61
2023/10/23 11:26:20;;;;;;;8.10;2.57;;;22.80;65.30;;;;;;5023386;28;20610;-61
2023/10/23 11:28:47;;;;;;;3.33;2.43;;;22.80;66.00;;;;;;5023703;28;20313;-61
2023/10/23 11:31:14;;;;;;;4.40;1.80;;;22.70;66.30;;;;;;5024375;28;20294;-61
2023/10/23 11:33:41;;;;;;;3.23;1.73;;;22.70;66.70;;;;;;5024108;28;20207;-62
2023/10/23 11:36:09;;;;;;;4.43;1.60;;;22.60;66.80;;;;;;5008952;28;20688;-62
2023/10/23 11:38:37;;;;;;;4.53;1.93;;;22.60;66.60;;;;;;5023662;28;20242;-62
2023/10/23 11:41:04;;;;;;;7.00;2.20;;;22.50;66.20;;;;;;5025582;28;20226;-62
2023/10/23 11:43:31;;;;;;;3.87;1.77;;;22.50;65.80;;;;;;5021984;28;20292;-62
2023/10/23 11:45:58;;;;;;;3.90;1.80;;;22.40;66.20;;;;;;5024096;28;20290;-62
2023/10/23 11:48:25;;;;;;;3.97;1.67;;;22.40;64.70;;;;;;5020958;28;20210;-62
2023/10/23 11:50:53;;;;;;;4.03;1.57;;;22.40;64.90;;;;;;5021494;28;20305;-62
2023/10/23 11:53:20;;;;;;;6.33;1.77;;;22.50;65.50;;;;;;5001830;28;20286;-61
2023/10/23 11:55:49;;;;;;;3.83;1.33;;;22.50;65.30;;;;;;5027271;28;20625;-61
2023/10/23 11:58:26;;;;;;;1.43;1.20;;;22.60;64.20;;;;;;5025838;28;20644;-61
2023/10/23 12:00:54;;;;;;;1.57;1.10;;;22.70;63.80;;;;;;5020190;28;20215;-62
2023/10/23 12:03:21;;;;;;;4.00;1.50;;;22.70;62.80;;;;;;5028365;28;20203;-62
2023/10/23 12:05:48;;;;;;;4.73;1.80;;;22.70;62.90;;;;;;5028939;28;20204;-60
2023/10/23 12:08:15;;;;;;;6.33;1.63;;;22.80;64.40;;;;;;5024804;28;20555;-60
2023/10/23 12:10:42;;;;;;;4.73;1.80;;;22.90;65.20;;;;;;5028838;28;20550;-60
2023/10/23 12:13:08;;;;;;;2.67;1.47;;;23.00;64.80;;;;;;5029917;28;20198;-60
2023/10/23 12:15:36;;;;;;;6.33;0.93;;;23.00;62.80;;;;;;5025730;28;20312;-60
2023/10/23 12:18:03;;;;;;;2.37;0.73;;;23.00;62.10;;;;;;5027876;28;20253;-60
2023/10/23 12:20:31;;;;;;;1.63;0.50;;;23.00;60.60;;;;;;5025321;28;20244;-60
2023/10/23 12:22:58;;;;;;;2.93;0.80;;;23.10;59.90;;;;;;5027514;28;20206;-60
2023/10/23 12:25:25;;;;;;;2.57;1.40;;;23.10;59.20;;;;;;5023822;28;20744;-60
2023/10/23 12:27:52;;;;;;;3.23;1.07;;;23.10;58.80;;;;;;5030230;28;20207;-60
2023/10/23 12:30:19;;;;;;;6.50;1.30;;;23.10;58.80;;;;;;5027907;28;20207;-60
2023/10/23 12:32:51;;;;;;;2.77;1.00;;;23.10;58.10;;;;;;5028373;28;20203;-59
2023/10/23 12:35:38;;;;;;;3.83;1.20;;;23.00;59.00;;;;;;5028549;28;20232;-59
2023/10/23 12:38:06;;;;;;;3.10;1.33;;;23.00;59.50;;;;;;5027711;28;20652;-59
2023/10/23 12:40:33;;;;;;;7.07;1.70;;;23.00;60.00;;;;;;5025290;28;20244;-59
2023/10/23 12:43:03;;;;;;;4.27;1.50;;;23.00;61.00;;;;;;5023711;28;20219;-59
2023/10/23 12:45:31;;;;;;;3.23;1.50;;;23.00;61.00;;;;;;5022871;28;20564;-60
2023/10/23 12:47:59;;;;;;;3.10;1.30;;;22.90;61.50;;;;;;5026979;28;20454;-60
2023/10/23 12:50:26;;;;;;;3.83;1.17;;;22.80;62.50;;;;;;5025997;28;20196;-60
2023/10/23 12:52:53;;;;;;;3.63;1.67;;;22.80;60.90;;;;;;5009019;28;20233;-60
2023/10/23 12:55:20;;;;;;;6.67;1.60;;;22.80;61.30;;;;;;5024881;28;20208;-60